Terminal Aerodrome Forecast
Issued by NWS Wilmington, OH

Current Version | Previous Version | Text Only | Print | Product List | Glossary On
Versions: 1 2 3 4 5 6 7 8 9 10 11 12 13 14 15 16 17 18 19 20 21 22 23 24 25
786 FTUS41 KILN 061002 AAA TAFCMH TAF AMD KCMH 061002Z 0610/0706 35008KT P6SM FEW080 FM061400 35012KT P6SM SCT040 FM070100 29003KT P6SM SKC=

USA.gov is the U.S. government's official web portal to all federal, state and local government web resources and services.